sensor_id;sensor_type;location;lat;lon;timestamp;temperature;humidity
73438;DHT22;66471;56.532;21.020;2023-07-30T07:59:47;14.40;99.90
73438;DHT22;66471;56.532;21.020;2023-07-30T08:02:14;14.30;99.90
73438;DHT22;66471;56.532;21.020;2023-07-30T08:04:42;14.20;99.90
73438;DHT22;66471;56.532;21.020;2023-07-30T08:07:09;14.20;99.90
73438;DHT22;66471;56.532;21.020;2023-07-30T08:09:36;14.20;99.90
73438;DHT22;66471;56.532;21.020;2023-07-30T08:12:04;14.20;99.90
73438;DHT22;66471;56.532;21.020;2023-07-30T08:14:31;14.10;99.90
73438;DHT22;66471;56.532;21.020;2023-07-30T08:16:59;14.20;99.90
73438;DHT22;66471;56.532;21.020;2023-07-30T08:19:28;14.10;99.90
73438;DHT22;66471;56.532;21.020;2023-07-30T08:21:55;14.00;99.90
73438;DHT22;66471;56.532;21.020;2023-07-30T08:24:23;14.00;99.90
73438;DHT22;66471;56.532;21.020;2023-07-30T08:26:51;14.00;99.90
73438;DHT22;66471;56.532;21.020;2023-07-30T08:29:18;14.00;99.90
73438;DHT22;66471;56.532;21.020;2023-07-30T08:31:45;13.90;99.90
73438;DHT22;66471;56.532;21.020;2023-07-30T08:34:17;13.90;99.90
73438;DHT22;66471;56.532;21.020;2023-07-30T08:36:46;13.90;99.90
73438;DHT22;66471;56.532;21.020;2023-07-30T08:39:13;13.90;99.90
73438;DHT22;66471;56.532;21.020;2023-07-30T08:41:40;14.00;99.90
73438;DHT22;66471;56.532;21.020;2023-07-30T08:44:09;14.10;99.90
73438;DHT22;66471;56.532;21.020;2023-07-30T08:46:36;14.10;99.90
73438;DHT22;66471;56.532;21.020;2023-07-30T08:49:04;14.20;99.90
73438;DHT22;66471;56.532;21.020;2023-07-30T08:51:36;14.10;99.90
73438;DHT22;66471;56.532;21.020;2023-07-30T08:54:05;14.20;99.90
73438;DHT22;66471;56.532;21.020;2023-07-30T08:56:34;14.20;99.90
73438;DHT22;66471;56.532;21.020;2023-07-30T08:59:02;14.20;99.90
73438;DHT22;66471;56.532;21.020;2023-07-30T09:01:36;14.20;99.90
73438;DHT22;66471;56.532;21.020;2023-07-30T09:04:06;14.30;99.90
73438;DHT22;66471;56.532;21.020;2023-07-30T09:06:34;14.30;99.90
73438;DHT22;66471;56.532;21.020;2023-07-30T09:09:02;14.30;99.90
73438;DHT22;66471;56.532;21.020;2023-07-30T09:11:32;14.50;99.90
73438;DHT22;66471;56.532;21.020;2023-07-30T09:14:01;14.50;99.90
73438;DHT22;66471;56.532;21.020;2023-07-30T12:12:01;26.20;61.90
73438;DHT22;66471;56.532;21.020;2023-07-30T12:14:43;26.50;60.70
73438;DHT22;66471;56.532;21.020;2023-07-30T12:17:12;27.50;58.90
73438;DHT22;66471;56.532;21.020;2023-07-30T12:19:39;28.40;55.70
73438;DHT22;66471;56.532;21.020;2023-07-30T12:22:07;28.00;56.40
73438;DHT22;66471;56.532;21.020;2023-07-30T12:24:35;28.30;53.50
73438;DHT22;66471;56.532;21.020;2023-07-30T12:27:02;28.00;55.50
73438;DHT22;66471;56.532;21.020;2023-07-30T12:29:30;28.20;54.00
73438;DHT22;66471;56.532;21.020;2023-07-30T12:31:57;27.40;56.60
73438;DHT22;66471;56.532;21.020;2023-07-30T12:34:29;27.70;54.80
73438;DHT22;66471;56.532;21.020;2023-07-30T12:36:56;27.50;56.40
73438;DHT22;66471;56.532;21.020;2023-07-30T12:39:24;28.00;55.10
73438;DHT22;66471;56.532;21.020;2023-07-30T12:41:52;27.80;56.30
73438;DHT22;66471;56.532;21.020;2023-07-30T12:44:19;28.50;54.20
73438;DHT22;66471;56.532;21.020;2023-07-30T12:46:46;28.00;54.50
73438;DHT22;66471;56.532;21.020;2023-07-30T12:49:13;28.10;53.40
73438;DHT22;66471;56.532;21.020;2023-07-30T12:51:41;28.30;54.40
73438;DHT22;66471;56.532;21.020;2023-07-30T12:54:08;28.30;52.70
73438;DHT22;66471;56.532;21.020;2023-07-30T12:56:36;28.20;54.20
73438;DHT22;66471;56.532;21.020;2023-07-30T12:59:04;27.80;54.90
73438;DHT22;66471;56.532;21.020;2023-07-30T13:01:32;27.20;55.20
73438;DHT22;66471;56.532;21.020;2023-07-30T13:03:59;27.00;58.00
73438;DHT22;66471;56.532;21.020;2023-07-30T13:06:26;27.20;56.70
73438;DHT22;66471;56.532;21.020;2023-07-30T13:08:53;28.00;55.20
73438;DHT22;66471;56.532;21.020;2023-07-30T13:11:20;27.50;53.00
73438;DHT22;66471;56.532;21.020;2023-07-30T13:13:47;27.40;54.20
73438;DHT22;66471;56.532;21.020;2023-07-30T13:16:15;27.30;55.20
73438;DHT22;66471;56.532;21.020;2023-07-30T13:18:42;27.80;52.70
73438;DHT22;66471;56.532;21.020;2023-07-30T13:21:11;27.90;52.40
73438;DHT22;66471;56.532;21.020;2023-07-30T13:23:38;27.70;52.50
73438;DHT22;66471;56.532;21.020;2023-07-30T13:26:05;27.40;54.40
73438;DHT22;66471;56.532;21.020;2023-07-30T13:28:32;27.40;53.10
73438;DHT22;66471;56.532;21.020;2023-07-30T13:30:59;28.60;53.00
73438;DHT22;66471;56.532;21.020;2023-07-30T13:33:27;28.80;51.50
73438;DHT22;66471;56.532;21.020;2023-07-30T13:35:54;28.90;51.50
73438;DHT22;66471;56.532;21.020;2023-07-30T13:38:21;28.50;52.00
73438;DHT22;66471;56.532;21.020;2023-07-30T13:40:49;27.90;52.60
73438;DHT22;66471;56.532;21.020;2023-07-30T13:43:16;28.10;51.80
73438;DHT22;66471;56.532;21.020;2023-07-30T13:45:44;27.50;54.90
73438;DHT22;66471;56.532;21.020;2023-07-30T13:48:12;27.70;51.80
73438;DHT22;66471;56.532;21.020;2023-07-30T13:50:39;27.30;51.70
73438;DHT22;66471;56.532;21.020;2023-07-30T13:53:06;27.80;53.10
73438;DHT22;66471;56.532;21.020;2023-07-30T13:55:33;27.40;54.60
73438;DHT22;66471;56.532;21.020;2023-07-30T13:58:00;26.90;56.10
73438;DHT22;66471;56.532;21.020;2023-07-30T14:00:28;26.00;58.50
73438;DHT22;66471;56.532;21.020;2023-07-30T14:02:55;25.20;61.10
73438;DHT22;66471;56.532;21.020;2023-07-30T14:05:22;25.40;61.70
73438;DHT22;66471;56.532;21.020;2023-07-30T14:07:50;26.30;57.70
73438;DHT22;66471;56.532;21.020;2023-07-30T14:10:20;27.10;54.60
73438;DHT22;66471;56.532;21.020;2023-07-30T14:12:48;27.50;54.50
73438;DHT22;66471;56.532;21.020;2023-07-30T14:15:15;26.60;56.60
73438;DHT22;66471;56.532;21.020;2023-07-30T14:17:46;26.20;61.50
73438;DHT22;66471;56.532;21.020;2023-07-30T14:20:13;26.30;57.90
73438;DHT22;66471;56.532;21.020;2023-07-30T14:22:41;25.80;59.50
73438;DHT22;66471;56.532;21.020;2023-07-30T14:25:08;26.20;60.00
73438;DHT22;66471;56.532;21.020;2023-07-30T14:27:35;26.50;58.40
73438;DHT22;66471;56.532;21.020;2023-07-30T14:30:02;26.60;57.60
73438;DHT22;66471;56.532;21.020;2023-07-30T14:32:30;26.40;55.30
73438;DHT22;66471;56.532;21.020;2023-07-30T14:34:57;25.70;57.80
73438;DHT22;66471;56.532;21.020;2023-07-30T14:37:25;25.40;61.50
73438;DHT22;66471;56.532;21.020;2023-07-30T14:39:52;25.60;61.20
73438;DHT22;66471;56.532;21.020;2023-07-30T14:42:19;26.00;58.30
73438;DHT22;66471;56.532;21.020;2023-07-30T14:44:46;26.50;56.60
73438;DHT22;66471;56.532;21.020;2023-07-30T14:47:13;26.30;58.10
73438;DHT22;66471;56.532;21.020;2023-07-30T14:49:40;26.10;59.10
73438;DHT22;66471;56.532;21.020;2023-07-30T14:52:09;25.70;60.30
73438;DHT22;66471;56.532;21.020;2023-07-30T14:54:36;25.70;59.70
73438;DHT22;66471;56.532;21.020;2023-07-30T14:57:05;25.50;59.40
73438;DHT22;66471;56.532;21.020;2023-07-30T14:59:32;25.60;60.60
73438;DHT22;66471;56.532;21.020;2023-07-30T15:02:00;25.60;62.60
73438;DHT22;66471;56.532;21.020;2023-07-30T15:04:28;25.70;60.00
73438;DHT22;66471;56.532;21.020;2023-07-30T15:06:57;25.00;61.00
73438;DHT22;66471;56.532;21.020;2023-07-30T15:09:24;23.50;67.20
73438;DHT22;66471;56.532;21.020;2023-07-30T15:11:52;22.80;70.00
73438;DHT22;66471;56.532;21.020;2023-07-30T15:14:19;22.30;73.00
73438;DHT22;66471;56.532;21.020;2023-07-30T15:16:46;22.10;73.20
73438;DHT22;66471;56.532;21.020;2023-07-30T15:19:14;22.00;73.80
73438;DHT22;66471;56.532;21.020;2023-07-30T15:21:41;21.40;75.60
73438;DHT22;66471;56.532;21.020;2023-07-30T15:24:08;21.50;75.70
73438;DHT22;66471;56.532;21.020;2023-07-30T15:26:36;21.30;76.10
73438;DHT22;66471;56.532;21.020;2023-07-30T15:29:06;21.90;76.00
73438;DHT22;66471;56.532;21.020;2023-07-30T15:31:33;23.10;73.00
73438;DHT22;66471;56.532;21.020;2023-07-30T15:34:00;23.40;71.80
73438;DHT22;66471;56.532;21.020;2023-07-30T15:36:30;23.00;73.40
73438;DHT22;66471;56.532;21.020;2023-07-30T15:38:57;23.00;74.00
73438;DHT22;66471;56.532;21.020;2023-07-30T15:41:24;23.60;72.30
73438;DHT22;66471;56.532;21.020;2023-07-30T15:43:52;23.60;71.70
73438;DHT22;66471;56.532;21.020;2023-07-30T15:46:25;23.50;73.30
73438;DHT22;66471;56.532;21.020;2023-07-30T15:48:54;23.80;70.30
